Time;durP1;ratioP1;P1;durP2;ratioP2;P2;SDS_P1;SDS_P2;PMS_P1;PMS_P2;Temp;Humidity;BMP_temperature;BMP_pressure;BME280_temperature;BME280_humidity;BME280_pressure;Samples;Min_cycle;Max_cycle;Signal;HPM_P1;HPM_P2
2022/05/24 00:00:14;;;;;;;13.48;11.55;;;14.40;99.90;;;;;;5060256;28;20040;-64
2022/05/24 00:02:41;;;;;;;16.65;12.05;;;14.40;99.90;;;;;;5067570;28;20040;-65
2022/05/24 00:05:09;;;;;;;17.38;11.88;;;14.30;99.90;;;;;;5051627;28;20056;-64
2022/05/24 00:07:35;;;;;;;;;;;14.30;99.90;;;;;;5066536;28;20044;-64
2022/05/24 00:10:02;;;;;;;20.70;11.45;;;14.30;99.90;;;;;;5070661;28;19924;-64
2022/05/24 00:12:28;;;;;;;11.27;10.02;;;14.30;99.90;;;;;;5069191;28;20105;-64
2022/05/24 00:17:38;;;;;;;19.30;11.85;;;14.30;99.90;;;;;;5050903;28;20049;-64
2022/05/24 00:20:05;;;;;;;17.80;10.27;;;14.30;99.90;;;;;;5051990;28;20045;-64
2022/05/24 00:22:30;;;;;;;14.20;11.43;;;14.30;99.90;;;;;;5070050;28;20121;-64
2022/05/24 00:25:01;;;;;;;11.20;10.10;;;14.20;99.90;;;;;;5070478;28;20129;-64
2022/05/24 00:27:27;;;;;;;13.63;10.60;;;14.20;99.90;;;;;;5068331;28;20052;-64
2022/05/24 00:29:54;;;;;;;15.02;11.73;;;14.20;99.90;;;;;;5058841;28;20106;-64
2022/05/24 00:32:19;;;;;;;13.73;10.70;;;14.20;99.90;;;;;;5063606;28;20049;-64
2022/05/24 00:34:45;;;;;;;12.45;9.68;;;14.20;99.90;;;;;;5066493;28;20226;-64
2022/05/24 00:37:11;;;;;;;12.85;11.23;;;14.20;99.90;;;;;;5056278;28;20515;-64
2022/05/24 00:39:36;;;;;;;15.75;11.13;;;14.20;99.90;;;;;;5070224;28;20497;-64
2022/05/24 00:42:10;;;;;;;15.40;10.32;;;14.20;99.90;;;;;;5070214;28;20051;-64
2022/05/24 00:44:43;;;;;;;17.30;12.30;;;14.20;99.90;;;;;;5052067;28;20540;-63
2022/05/24 00:48:01;;;;;;;14.32;11.35;;;14.20;99.90;;;;;;5051200;28;20669;-64
2022/05/24 00:50:32;;;;;;;14.23;10.98;;;14.10;99.90;;;;;;5046029;28;20056;-64
2022/05/24 00:53:04;;;;;;;13.07;10.75;;;14.00;99.90;;;;;;5053693;28;20052;-64
2022/05/24 00:55:40;;;;;;;20.73;11.05;;;14.10;99.90;;;;;;5069887;28;20039;-64
2022/05/24 00:58:09;;;;;;;17.85;11.60;;;14.10;99.90;;;;;;5056516;28;20748;-64
2022/05/24 01:00:34;;;;;;;18.33;9.90;;;14.10;99.90;;;;;;5061342;28;20181;-63
2022/05/24 01:03:00;;;;;;;9.15;7.75;;;14.00;99.90;;;;;;5062795;28;20124;-64
2022/05/24 01:05:29;;;;;;;14.02;7.70;;;14.00;99.90;;;;;;5069487;28;20501;-64
2022/05/24 01:07:55;;;;;;;12.68;7.38;;;14.00;99.90;;;;;;5066108;28;20055;-64
2022/05/24 01:10:35;;;;;;;9.63;7.38;;;14.00;99.90;;;;;;5064134;28;20047;-63
2022/05/24 01:13:10;;;;;;;10.45;7.32;;;13.90;99.90;;;;;;5063994;28;20091;-63
2022/05/24 01:15:38;;;;;;;13.68;8.02;;;13.90;99.90;;;;;;5069348;28;20044;-63
2022/05/24 01:18:04;;;;;;;9.57;7.53;;;13.90;99.90;;;;;;5069794;28;20049;-64
2022/05/24 01:20:30;;;;;;;13.48;7.53;;;13.90;99.90;;;;;;5050424;28;20049;-63
2022/05/24 01:23:33;;;;;;;8.40;7.40;;;13.90;99.90;;;;;;5049186;28;20123;-64
2022/05/24 01:26:21;;;;;;;13.20;7.72;;;13.90;99.90;;;;;;5052923;28;20051;-63
2022/05/24 01:28:54;;;;;;;11.95;8.60;;;13.90;99.90;;;;;;5058648;28;20047;-64
2022/05/24 01:31:22;;;;;;;11.68;8.40;;;13.90;99.90;;;;;;5069458;28;20051;-64
2022/05/24 01:36:40;;;;;;;11.73;10.15;;;13.90;99.90;;;;;;5049978;28;20041;-63
2022/05/24 01:39:08;;;;;;;15.40;12.75;;;13.90;99.90;;;;;;5062851;28;20056;-63
2022/05/24 01:41:41;;;;;;;19.20;11.77;;;13.90;99.90;;;;;;5061472;28;20044;-63
2022/05/24 01:44:08;;;;;;;26.30;13.68;;;13.90;99.90;;;;;;5060932;28;20093;-63
2022/05/24 01:46:41;;;;;;;18.75;14.02;;;13.80;99.90;;;;;;5069360;28;20040;-64
2022/05/24 01:49:20;;;;;;;19.95;15.50;;;13.90;99.90;;;;;;5061030;28;20063;-64
2022/05/24 01:51:57;;;;;;;24.08;15.98;;;13.80;99.90;;;;;;5055557;28;20119;-64
2022/05/24 01:54:23;;;;;;;17.27;15.32;;;13.80;99.90;;;;;;5053570;28;20493;-64
2022/05/24 01:56:55;;;;;;;24.45;18.27;;;13.80;99.90;;;;;;5057261;28;20051;-64
2022/05/24 01:59:23;;;;;;;21.98;18.75;;;13.80;99.90;;;;;;5058712;28;20567;-64
2022/05/24 02:01:55;;;;;;;28.58;20.88;;;13.80;99.90;;;;;;5065942;28;20123;-64
2022/05/24 02:04:22;;;;;;;27.65;19.98;;;13.80;99.90;;;;;;5066346;28;20040;-64
2022/05/24 02:06:59;;;;;;;31.92;21.60;;;13.80;99.90;;;;;;5069042;28;20040;-64
2022/05/24 02:09:24;;;;;;;31.73;21.05;;;13.80;99.90;;;;;;5068037;28;20572;-64
2022/05/24 02:11:51;;;;;;;26.60;20.52;;;13.80;99.90;;;;;;5063523;28;20123;-64
2022/05/24 02:14:22;;;;;;;25.02;20.27;;;13.70;99.90;;;;;;5060547;28;20373;-64
2022/05/24 02:17:11;;;;;;;31.52;21.35;;;13.70;99.90;;;;;;5059722;28;20063;-64
2022/05/24 02:19:44;;;;;;;37.38;23.58;;;13.70;99.90;;;;;;5048778;28;20040;-64
2022/05/24 02:22:17;;;;;;;23.55;19.95;;;13.70;99.90;;;;;;5050165;28;20796;-64
2022/05/24 02:24:43;;;;;;;28.60;21.60;;;13.70;99.90;;;;;;5068080;28;20045;-65
2022/05/24 02:27:09;;;;;;;24.52;19.38;;;13.60;99.90;;;;;;5060578;28;20037;-64
2022/05/24 02:29:35;;;;;;;28.00;21.65;;;13.60;99.90;;;;;;5056323;28;20043;-64
2022/05/24 02:32:00;;;;;;;27.02;20.45;;;13.60;99.90;;;;;;5065744;28;20036;-64
2022/05/24 02:34:26;;;;;;;27.17;21.02;;;13.60;99.90;;;;;;5060429;28;20516;-64
2022/05/24 02:36:52;;;;;;;27.20;20.58;;;13.60;99.90;;;;;;5048917;28;20150;-64
2022/05/24 02:39:17;;;;;;;27.67;20.48;;;13.50;99.90;;;;;;5059919;28;20040;-64
2022/05/24 02:41:43;;;;;;;30.88;21.83;;;13.60;99.90;;;;;;5068379;28;20143;-64
2022/05/24 02:44:12;;;;;;;29.63;23.42;;;13.60;99.90;;;;;;5064277;28;20041;-64
2022/05/24 02:46:41;;;;;;;35.55;24.85;;;13.60;99.90;;;;;;5068074;28;20051;-63
2022/05/24 02:49:07;;;;;;;38.72;27.10;;;13.50;99.90;;;;;;5067420;28;20056;-64
2022/05/24 02:51:34;;;;;;;32.45;25.80;;;13.50;99.90;;;;;;5055842;28;20883;-64
2022/05/24 02:54:00;;;;;;;38.40;26.15;;;13.50;99.90;;;;;;5068890;28;20121;-63
2022/05/24 02:56:26;;;;;;;39.83;28.73;;;13.50;99.90;;;;;;5064213;28;20075;-63
2022/05/24 02:58:52;;;;;;;42.70;29.80;;;13.50;99.90;;;;;;5063825;28;20574;-64
2022/05/24 03:01:26;;;;;;;41.15;31.25;;;13.50;99.90;;;;;;5061509;28;20072;-63
2022/05/24 03:03:53;;;;;;;49.63;33.58;;;13.60;99.90;;;;;;5068233;28;20133;-63
2022/05/24 03:06:21;;;;;;;47.27;33.13;;;13.60;99.90;;;;;;5067834;28;20048;-64
2022/05/24 03:14:17;;;;;;;43.08;32.63;;;13.60;99.90;;;;;;5062034;28;20076;-64
2022/05/24 03:16:50;;;;;;;53.95;33.85;;;13.70;99.90;;;;;;5063846;28;20378;-64
2022/05/24 03:19:15;;;;;;;47.30;34.72;;;13.70;99.90;;;;;;5065324;28;20052;-64
2022/05/24 03:21:43;;;;;;;51.97;35.10;;;13.60;99.90;;;;;;5063145;28;20033;-64
2022/05/24 03:24:09;;;;;;;42.20;32.65;;;13.70;99.90;;;;;;5067768;28;20048;-64
2022/05/24 03:26:35;;;;;;;51.10;36.22;;;13.70;99.90;;;;;;5052547;28;20387;-64
2022/05/24 03:29:01;;;;;;;49.78;36.75;;;13.70;99.90;;;;;;5048767;28;20048;-64
2022/05/24 03:31:26;;;;;;;57.80;38.38;;;13.70;99.90;;;;;;5052897;28;20033;-64
2022/05/24 03:33:52;;;;;;;56.55;40.00;;;13.70;99.90;;;;;;5060183;28;20091;-64
2022/05/24 03:36:22;;;;;;;59.30;40.55;;;13.80;99.90;;;;;;5055601;28;20047;-64
2022/05/24 03:38:48;;;;;;;57.38;40.83;;;13.80;99.90;;;;;;5066872;28;20040;-64
2022/05/24 03:41:14;;;;;;;52.58;37.67;;;13.80;99.90;;;;;;5054964;28;20083;-64
2022/05/24 03:43:40;;;;;;;57.90;39.58;;;13.80;99.90;;;;;;5048902;28;20068;-64
2022/05/24 03:46:08;;;;;;;54.67;38.90;;;13.80;99.90;;;;;;5062477;28;20059;-65
2022/05/24 03:48:35;;;;;;;61.08;38.95;;;13.80;99.90;;;;;;5067380;28;20056;-64
2022/05/24 03:51:00;;;;;;;58.10;40.20;;;13.90;99.90;;;;;;5061463;28;20048;-64
2022/05/24 03:53:26;;;;;;;60.47;41.42;;;13.90;99.90;;;;;;5053714;28;20044;-64
2022/05/24 03:55:52;;;;;;;58.13;43.90;;;13.90;99.90;;;;;;5051005;28;20090;-64
2022/05/24 03:58:19;;;;;;;64.57;38.25;;;13.90;99.90;;;;;;5065900;28;20489;-65
2022/05/24 04:00:45;;;;;;;53.17;39.20;;;13.90;99.90;;;;;;5063654;28;20098;-64
2022/05/24 04:03:12;;;;;;;58.17;41.97;;;13.90;99.90;;;;;;5067426;28;20469;-64
2022/05/24 04:05:38;;;;;;;61.30;39.25;;;13.90;99.90;;;;;;5070894;28;20051;-64
2022/05/24 04:08:04;;;;;;;53.08;37.85;;;13.90;99.90;;;;;;5070297;28;20401;-64
2022/05/24 04:10:31;;;;;;;49.03;36.97;;;13.90;99.90;;;;;;5058473;28;20044;-64
2022/05/24 04:12:58;;;;;;;60.75;41.83;;;14.00;99.90;;;;;;5068294;28;20124;-64
2022/05/24 04:15:23;;;;;;;54.50;40.13;;;14.00;99.90;;;;;;5057530;28;20045;-65
2022/05/24 04:17:52;;;;;;;48.15;39.05;;;14.00;99.90;;;;;;5069040;28;20052;-64
2022/05/24 04:20:19;;;;;;;58.08;40.00;;;14.00;99.90;;;;;;5056337;28;20044;-65
2022/05/24 04:22:45;;;;;;;55.90;39.80;;;14.00;99.90;;;;;;5070487;28;20086;-65
2022/05/24 04:25:13;;;;;;;51.90;38.08;;;14.00;99.90;;;;;;5070442;28;20041;-64
2022/05/24 04:27:39;;;;;;;53.70;37.25;;;14.00;99.90;;;;;;5069873;28;20036;-64
2022/05/24 04:30:06;;;;;;;49.58;37.22;;;14.00;99.90;;;;;;5062024;28;20041;-65
2022/05/24 04:32:32;;;;;;;51.78;36.38;;;14.10;99.90;;;;;;5070592;28;20044;-65
2022/05/24 04:34:58;;;;;;;45.15;36.05;;;14.10;99.90;;;;;;5055190;28;20695;-64
2022/05/24 04:37:23;;;;;;;48.35;34.97;;;14.10;99.90;;;;;;5061675;28;20646;-65
2022/05/24 04:39:49;;;;;;;52.58;36.25;;;14.10;99.90;;;;;;5065090;28;20139;-64
2022/05/24 04:42:24;;;;;;;47.75;36.20;;;14.10;99.90;;;;;;5070569;28;20485;-65
2022/05/24 04:44:56;;;;;;;48.45;34.13;;;14.10;99.90;;;;;;5061315;28;20110;-64
2022/05/24 04:47:24;;;;;;;45.65;35.45;;;14.20;99.90;;;;;;5069697;28;20041;-64
2022/05/24 04:49:55;;;;;;;49.38;34.67;;;14.20;99.90;;;;;;5069255;28;20059;-65
2022/05/24 04:52:23;;;;;;;45.03;34.60;;;14.20;99.90;;;;;;5070247;28;20037;-64
2022/05/24 04:54:50;;;;;;;48.75;36.17;;;14.20;99.90;;;;;;5066665;28;20048;-64
2022/05/24 04:57:16;;;;;;;52.55;36.10;;;14.20;99.90;;;;;;5067038;28;20151;-64
2022/05/24 04:59:42;;;;;;;48.67;36.28;;;14.30;99.90;;;;;;5061696;28;20128;-65
2022/05/24 05:02:08;;;;;;;51.53;34.00;;;14.30;99.90;;;;;;5067344;28;20044;-65
2022/05/24 05:04:35;;;;;;;46.42;35.58;;;14.30;99.90;;;;;;5070016;28;20489;-65
2022/05/24 05:07:01;;;;;;;49.13;37.33;;;14.30;99.90;;;;;;5069996;28;20041;-64
2022/05/24 05:09:34;;;;;;;59.50;37.97;;;14.30;99.90;;;;;;5069842;28;20386;-65
2022/05/24 05:12:07;;;;;;;65.55;39.63;;;14.30;99.90;;;;;;5062194;28;20048;-64
2022/05/24 05:14:34;;;;;;;58.78;38.22;;;14.30;99.90;;;;;;5061077;28;20086;-65
2022/05/24 05:17:00;;;;;;;48.08;36.83;;;14.30;99.90;;;;;;5056417;28;20063;-64
2022/05/24 05:19:27;;;;;;;65.82;39.72;;;14.30;99.90;;;;;;5069382;28;20486;-65
2022/05/24 05:21:54;;;;;;;56.92;36.97;;;14.30;99.90;;;;;;5064760;28;20045;-65
2022/05/24 05:24:19;;;;;;;59.60;39.78;;;14.30;99.90;;;;;;5049617;28;20048;-64
2022/05/24 05:26:45;;;;;;;59.15;39.03;;;14.30;99.90;;;;;;5049623;28;20627;-65
2022/05/24 05:29:11;;;;;;;59.75;39.92;;;14.30;99.90;;;;;;5059656;28;20181;-65
2022/05/24 05:31:36;;;;;;;66.95;40.85;;;14.30;99.90;;;;;;5069580;28;20037;-65
2022/05/24 05:34:03;;;;;;;52.40;38.60;;;14.30;99.90;;;;;;5064141;28;20049;-64
2022/05/24 05:36:30;;;;;;;75.15;40.40;;;14.30;99.90;;;;;;5068858;28;20421;-64
2022/05/24 05:38:56;;;;;;;66.53;36.60;;;14.30;99.90;;;;;;5069444;28;20186;-65
2022/05/24 05:41:25;;;;;;;56.25;37.35;;;14.30;99.90;;;;;;5069081;28;20106;-64
2022/05/24 05:43:51;;;;;;;56.70;35.88;;;14.20;99.90;;;;;;5064403;28;20565;-65
2022/05/24 05:46:18;;;;;;;54.35;38.42;;;14.20;99.90;;;;;;5050931;28;20148;-64
2022/05/24 05:48:44;;;;;;;55.72;34.28;;;14.20;99.90;;;;;;5048758;28;20077;-64
2022/05/24 05:51:12;;;;;;;50.70;32.03;;;14.20;99.90;;;;;;5064260;28;20067;-65
2022/05/24 05:53:38;;;;;;;48.50;34.00;;;14.20;99.90;;;;;;5049476;28;20815;-64
2022/05/24 05:56:07;;;;;;;43.30;32.58;;;14.20;99.90;;;;;;5049423;28;20041;-65
2022/05/24 05:58:33;;;;;;;57.20;35.80;;;14.30;99.90;;;;;;5055220;28;20045;-64
2022/05/24 06:01:00;;;;;;;47.88;34.33;;;14.30;99.90;;;;;;5056021;28;20044;-64
2022/05/24 06:03:26;;;;;;;53.03;36.30;;;14.30;99.90;;;;;;5068522;28;20048;-64
2022/05/24 06:05:52;;;;;;;56.28;34.88;;;14.30;99.90;;;;;;5062061;28;20123;-64
2022/05/24 06:08:18;;;;;;;45.88;31.92;;;14.30;99.90;;;;;;5052927;28;20048;-65
2022/05/24 06:10:45;;;;;;;43.88;30.02;;;14.30;99.90;;;;;;5053057;28;20041;-65
2022/05/24 06:13:10;;;;;;;37.25;27.85;;;14.20;99.90;;;;;;5055913;28;20402;-64
2022/05/24 06:15:37;;;;;;;47.30;28.95;;;14.20;99.90;;;;;;5061482;28;20160;-64
2022/05/24 06:18:04;;;;;;;38.13;28.45;;;14.30;99.90;;;;;;5055282;28;20055;-64
2022/05/24 06:20:31;;;;;;;35.47;27.48;;;14.30;99.90;;;;;;5065070;28;20865;-63
2022/05/24 06:23:00;;;;;;;40.83;29.40;;;14.40;99.90;;;;;;5068912;28;20067;-64
2022/05/24 06:25:29;;;;;;;42.70;29.50;;;14.40;99.90;;;;;;5059469;28;20538;-64
2022/05/24 06:27:56;;;;;;;51.53;29.55;;;14.40;99.90;;;;;;5068271;28;20555;-64
2022/05/24 06:30:23;;;;;;;48.60;29.45;;;14.40;99.90;;;;;;5058013;28;20123;-65
2022/05/24 06:32:50;;;;;;;41.80;28.52;;;14.40;99.90;;;;;;5069476;28;20048;-65
2022/05/24 06:35:17;;;;;;;37.15;26.50;;;14.40;99.90;;;;;;5060295;28;20078;-66
2022/05/24 06:37:43;;;;;;;47.78;29.92;;;14.40;99.90;;;;;;5051930;28;20033;-65
2022/05/24 06:40:13;;;;;;;37.72;27.33;;;14.50;99.90;;;;;;5051731;28;20110;-65
2022/05/24 06:42:39;;;;;;;44.10;28.85;;;14.50;99.90;;;;;;5053558;28;20067;-65
2022/05/24 06:45:06;;;;;;;51.95;29.27;;;14.40;99.90;;;;;;5056928;28;20045;-65
2022/05/24 06:47:32;;;;;;;45.88;28.52;;;14.40;99.90;;;;;;5067966;28;20060;-65
2022/05/24 06:49:58;;;;;;;46.38;27.15;;;14.40;99.90;;;;;;5059007;28;20682;-65
2022/05/24 06:52:24;;;;;;;40.35;27.45;;;14.40;99.90;;;;;;5047609;28;20044;-63
2022/05/24 06:54:51;;;;;;;36.42;27.58;;;14.40;99.90;;;;;;5053079;28;20041;-64
2022/05/24 06:57:17;;;;;;;40.25;28.58;;;14.40;99.90;;;;;;5056767;28;20115;-64
2022/05/24 07:02:27;;;;;;;46.42;28.70;;;14.50;99.90;;;;;;5048060;28;20106;-64
2022/05/24 07:05:06;;;;;;;47.30;29.33;;;14.50;99.90;;;;;;5051000;28;20045;-64
2022/05/24 07:07:33;;;;;;;40.50;29.20;;;14.50;99.90;;;;;;5068119;28;20055;-64
2022/05/24 07:10:00;;;;;;;47.80;29.63;;;14.50;99.90;;;;;;5063454;28;20048;-64
2022/05/24 07:12:26;;;;;;;42.35;28.42;;;14.50;99.90;;;;;;5047703;28;20053;-64
2022/05/24 07:14:53;;;;;;;41.78;29.08;;;14.50;99.90;;;;;;5047747;28;20045;-64
2022/05/24 07:17:19;;;;;;;38.42;27.33;;;14.50;99.90;;;;;;5053606;28;20048;-64
2022/05/24 07:19:46;;;;;;;44.05;28.73;;;14.40;99.90;;;;;;5048984;28;20033;-64
2022/05/24 07:22:12;;;;;;;38.17;26.23;;;14.40;99.90;;;;;;5047788;28;20037;-64
2022/05/24 07:24:38;;;;;;;39.28;25.58;;;14.40;99.90;;;;;;5049136;28;20049;-64
2022/05/24 07:27:07;;;;;;;49.72;28.13;;;14.40;99.90;;;;;;5047538;28;20124;-65
2022/05/24 07:29:33;;;;;;;;;;;14.30;99.90;;;;;;5051279;28;20477;-64
2022/05/24 07:31:59;;;;;;;38.35;27.77;;;14.30;99.90;;;;;;5048697;28;20382;-64
2022/05/24 07:34:25;;;;;;;37.72;26.70;;;14.30;99.90;;;;;;5049653;28;20045;-64
2022/05/24 07:36:50;;;;;;;36.15;28.73;;;14.30;99.90;;;;;;5047568;28;20041;-65
2022/05/24 07:39:16;;;;;;;37.00;26.83;;;14.30;99.90;;;;;;5046986;28;20064;-65
2022/05/24 07:47:12;;;;;;;40.90;26.65;;;14.30;99.90;;;;;;5056165;28;20505;-65
2022/05/24 07:49:38;;;;;;;32.90;24.08;;;14.30;99.90;;;;;;5047651;28;20096;-65
2022/05/24 07:52:04;;;;;;;34.33;25.42;;;14.30;99.90;;;;;;5046536;28;20049;-65
2022/05/24 07:54:31;;;;;;;35.00;24.98;;;14.30;99.90;;;;;;5046715;28;20050;-65
2022/05/24 07:56:57;;;;;;;40.08;25.90;;;14.40;99.90;;;;;;5047239;28;20511;-64
2022/05/24 07:59:23;;;;;;;52.67;24.08;;;14.40;99.90;;;;;;5046779;28;20111;-65
2022/05/24 08:01:48;;;;;;;38.03;25.67;;;14.40;99.90;;;;;;5057970;28;20416;-65
2022/05/24 08:04:14;;;;;;;37.05;24.25;;;14.40;99.90;;;;;;5058480;28;20045;-65
2022/05/24 08:06:40;;;;;;;31.52;24.23;;;14.40;99.90;;;;;;5047128;28;20044;-65
2022/05/24 08:09:06;;;;;;;36.33;23.60;;;14.50;99.90;;;;;;5046956;28;20527;-65
2022/05/24 08:11:31;;;;;;;41.55;24.75;;;14.40;99.90;;;;;;5046910;28;20041;-65
2022/05/24 08:14:02;;;;;;;36.60;24.70;;;14.40;99.90;;;;;;5049807;28;20051;-65
2022/05/24 08:16:29;;;;;;;32.45;22.67;;;14.40;99.90;;;;;;5051718;28;20045;-65
2022/05/24 08:18:55;;;;;;;35.72;24.35;;;14.40;99.90;;;;;;5052773;28;20059;-64
2022/05/24 08:21:21;;;;;;;34.30;24.73;;;14.40;99.90;;;;;;5047153;28;20120;-65
2022/05/24 08:23:46;;;;;;;30.33;22.33;;;14.50;99.90;;;;;;5055636;28;20085;-64
2022/05/24 08:26:13;;;;;;;29.58;22.73;;;14.50;99.90;;;;;;5056249;28;20037;-65
2022/05/24 08:28:43;;;;;;;44.58;22.63;;;14.70;99.90;;;;;;5046620;28;20480;-65
2022/05/24 08:31:10;;;;;;;30.33;22.77;;;14.90;99.90;;;;;;5055811;28;20068;-65
2022/05/24 08:33:36;;;;;;;26.90;21.13;;;15.10;99.90;;;;;;5050347;28;20067;-65
2022/05/24 08:36:02;;;;;;;34.67;20.95;;;15.10;99.90;;;;;;5050573;28;20037;-65
2022/05/24 08:38:28;;;;;;;28.95;22.35;;;15.10;99.90;;;;;;5050422;28;20052;-65
2022/05/24 08:41:00;;;;;;;28.85;18.55;;;15.20;99.90;;;;;;5051060;28;20532;-64
2022/05/24 08:43:35;;;;;;;36.35;22.00;;;15.10;99.90;;;;;;5051303;28;20064;-65
2022/05/24 08:48:54;;;;;;;25.15;18.73;;;15.20;99.90;;;;;;5070733;28;20045;-65
2022/05/24 08:51:31;;;;;;;26.05;19.55;;;15.20;99.90;;;;;;5051444;28;20186;-64
2022/05/24 08:54:05;;;;;;;22.13;16.55;;;15.20;99.90;;;;;;5050342;28;20052;-64
2022/05/24 08:56:37;;;;;;;20.27;17.08;;;15.30;99.90;;;;;;5055296;28;20040;-64
2022/05/24 08:59:14;;;;;;;23.13;16.52;;;15.30;99.90;;;;;;5065758;28;20044;-64
2022/05/24 09:01:41;;;;;;;23.50;16.88;;;15.60;99.90;;;;;;5062746;28;20048;-65
2022/05/24 09:04:09;;;;;;;24.83;17.27;;;15.70;99.90;;;;;;5069790;28;20036;-65
2022/05/24 09:06:56;;;;;;;22.30;16.15;;;16.10;99.90;;;;;;5051831;28;20045;-66
2022/05/24 09:09:32;;;;;;;29.27;18.85;;;16.60;99.90;;;;;;5050818;28;20079;-66
2022/05/24 09:12:33;;;;;;;21.38;16.25;;;16.90;99.90;;;;;;5056692;28;20047;-66
2022/05/24 09:15:07;;;;;;;24.83;15.57;;;17.00;99.90;;;;;;5069156;28;20068;-66
2022/05/24 09:17:54;;;;;;;19.23;14.00;;;17.30;99.90;;;;;;5069599;28;20119;-66
2022/05/24 09:20:35;;;;;;;17.80;12.95;;;17.30;99.90;;;;;;5070353;28;20135;-66
2022/05/24 09:23:09;;;;;;;18.90;12.43;;;17.10;99.90;;;;;;5070289;28;20041;-66
2022/05/24 09:25:35;;;;;;;16.60;11.90;;;17.00;99.90;;;;;;5052529;28;20049;-66
2022/05/24 09:28:00;;;;;;;18.17;11.95;;;17.00;99.90;;;;;;5069889;28;20422;-66
2022/05/24 09:30:29;;;;;;;13.73;11.93;;;17.10;99.90;;;;;;5068454;28;20037;-65
2022/05/24 09:33:24;;;;;;;15.02;10.40;;;17.00;99.90;;;;;;5049621;28;20125;-66
2022/05/24 09:35:57;;;;;;;15.50;10.32;;;16.90;99.90;;;;;;5050546;28;20048;-65
2022/05/24 09:38:32;;;;;;;15.82;11.00;;;16.90;99.90;;;;;;5049208;28;20041;-64
2022/05/24 09:41:07;;;;;;;18.73;10.68;;;17.20;99.90;;;;;;5055250;28;20107;-65
2022/05/24 09:43:36;;;;;;;14.07;9.18;;;17.20;99.90;;;;;;5052727;28;20033;-66
2022/05/24 09:46:26;;;;;;;11.07;10.07;;;17.10;99.90;;;;;;5057922;28;20055;-65
2022/05/24 09:49:03;;;;;;;12.63;10.32;;;16.90;99.90;;;;;;5047492;28;20118;-65
2022/05/24 09:51:36;;;;;;;12.68;10.45;;;16.60;99.90;;;;;;5057310;28;20083;-65
2022/05/24 09:54:16;;;;;;;14.85;11.30;;;16.40;99.90;;;;;;5060098;28;20036;-65
2022/05/24 09:56:57;;;;;;;15.68;11.30;;;16.30;99.90;;;;;;5058847;28;20048;-65
2022/05/24 09:59:26;;;;;;;12.77;10.20;;;16.20;99.90;;;;;;5054290;28;20048;-65
2022/05/24 10:01:53;;;;;;;13.20;11.88;;;16.10;99.90;;;;;;5066792;28;20108;-65
2022/05/24 10:04:34;;;;;;;18.80;13.35;;;16.10;99.90;;;;;;5048872;28;20044;-66
2022/05/24 10:07:08;;;;;;;14.55;12.75;;;16.20;99.90;;;;;;5056204;28;20041;-66
2022/05/24 10:09:46;;;;;;;16.63;12.95;;;16.20;99.90;;;;;;5060614;28;20055;-66
2022/05/24 10:12:15;;;;;;;20.10;12.65;;;16.40;99.90;;;;;;5051437;28;20079;-66
2022/05/24 10:14:53;;;;;;;15.88;10.95;;;16.60;99.90;;;;;;5050488;28;20444;-65
2022/05/24 10:17:37;;;;;;;16.52;10.98;;;16.90;99.90;;;;;;5048350;28;20051;-66
2022/05/24 10:20:23;;;;;;;18.65;11.32;;;17.00;99.90;;;;;;5048615;28;20044;-65
2022/05/24 10:22:48;;;;;;;14.82;9.90;;;17.10;99.90;;;;;;5054489;28;20127;-66
2022/05/24 10:25:26;;;;;;;15.52;10.20;;;17.10;99.90;;;;;;5056583;28;20730;-66
2022/05/24 10:28:11;;;;;;;16.30;9.20;;;17.10;99.90;;;;;;5058841;28;20512;-66
2022/05/24 10:30:59;;;;;;;11.10;8.38;;;17.20;99.90;;;;;;5056125;28;20127;-66
2022/05/24 10:40:04;;;;;;;13.85;8.25;;;17.10;99.90;;;;;;5002421;28;20047;-66
2022/05/24 10:43:05;;;;;;;6.35;4.43;;;17.40;99.90;;;;;;5048222;28;20057;-66
2022/05/24 10:45:51;;;;;;;4.18;3.80;;;17.40;99.90;;;;;;5048435;28;20128;-66
2022/05/24 10:48:29;;;;;;;4.78;3.72;;;17.40;99.90;;;;;;5051904;28;20118;-66
2022/05/24 10:51:00;;;;;;;;;;;17.40;99.90;;;;;;5061318;28;20056;-66
2022/05/24 10:53:36;;;;;;;8.35;4.43;;;17.30;99.90;;;;;;5053640;28;19925;-66
2022/05/24 10:56:06;;;;;;;5.78;3.70;;;17.40;99.90;;;;;;5062945;28;20045;-66
2022/05/24 10:58:39;;;;;;;6.30;4.57;;;17.50;99.90;;;;;;5052083;28;20032;-66
2022/05/24 11:01:21;;;;;;;7.15;4.65;;;17.60;99.90;;;;;;5050468;28;20101;-65
2022/05/24 11:03:53;;;;;;;13.85;6.18;;;17.60;99.90;;;;;;5060154;28;20401;-66
2022/05/24 11:06:25;;;;;;;7.00;3.15;;;17.50;99.90;;;;;;5057591;28;20528;-66
2022/05/24 11:09:04;;;;;;;4.25;3.03;;;17.20;99.90;;;;;;5047802;28;20107;-65
2022/05/24 11:11:34;;;;;;;6.82;3.00;;;16.90;99.90;;;;;;5046683;28;20084;-66
2022/05/24 11:14:04;;;;;;;7.00;3.60;;;16.60;99.90;;;;;;5047666;28;20051;-66
2022/05/24 11:16:36;;;;;;;7.00;4.28;;;16.30;99.90;;;;;;5048957;28;20045;-66
2022/05/24 11:19:02;;;;;;;4.90;4.07;;;16.20;99.90;;;;;;5066798;28;20409;-66
2022/05/24 11:21:36;;;;;;;3.25;2.95;;;15.80;99.90;;;;;;5067837;28;20094;-66
2022/05/24 11:24:13;;;;;;;5.43;3.58;;;15.60;99.90;;;;;;5068331;28;20119;-65
2022/05/24 11:26:51;;;;;;;2.70;2.50;;;15.40;99.90;;;;;;5053975;28;20048;-65
2022/05/24 11:29:24;;;;;;;15.20;3.30;;;15.20;99.90;;;;;;5051541;28;20115;-66
2022/05/24 11:31:52;;;;;;;4.55;3.40;;;15.00;99.90;;;;;;5050691;28;20041;-65
2022/05/24 11:34:29;;;;;;;4.03;3.63;;;14.80;99.90;;;;;;5059493;28;20040;-65
2022/05/24 11:37:02;;;;;;;4.75;3.45;;;14.90;99.90;;;;;;5051620;28;20187;-65
2022/05/24 11:39:38;;;;;;;5.07;3.30;;;14.80;99.90;;;;;;5052558;28;20049;-65
2022/05/24 11:42:18;;;;;;;3.55;2.97;;;14.80;99.90;;;;;;5057858;28;20040;-64
2022/05/24 11:44:44;;;;;;;3.63;3.33;;;14.80;99.90;;;;;;5056220;28;20045;-64
2022/05/24 11:47:37;;;;;;;8.30;5.05;;;14.80;99.90;;;;;;5056304;28;20071;-64
2022/05/24 11:50:24;;;;;;;4.93;4.43;;;14.80;99.90;;;;;;5055411;28;20103;-64
2022/05/24 11:53:08;;;;;;;5.97;4.80;;;14.80;99.90;;;;;;5064953;28;20123;-65
2022/05/24 11:55:40;;;;;;;6.07;4.93;;;14.70;99.90;;;;;;5053123;28;20186;-65
2022/05/24 11:58:30;;;;;;;8.20;5.35;;;14.70;99.90;;;;;;5050611;28;20048;-64
2022/05/24 12:01:15;;;;;;;10.80;5.85;;;14.70;99.90;;;;;;5041423;28;20106;-64
2022/05/24 12:09:58;;;;;;;9.52;5.63;;;14.80;99.90;;;;;;5054575;28;20131;-65
2022/05/24 12:12:36;;;;;;;7.03;5.20;;;14.90;99.90;;;;;;5054656;28;20074;-63
2022/05/24 12:15:11;;;;;;;;;;;15.20;99.90;;;;;;5055639;28;20041;-63
2022/05/24 12:17:38;;;;;;;7.90;4.97;;;15.40;99.90;;;;;;5057219;28;19951;-64
2022/05/24 12:20:25;;;;;;;4.68;4.22;;;15.70;99.90;;;;;;5064041;28;20098;-65
2022/05/24 12:23:09;;;;;;;3.65;2.70;;;15.80;99.90;;;;;;5054768;28;20128;-65
2022/05/24 12:25:59;;;;;;;3.90;3.00;;;16.10;99.90;;;;;;5065519;28;20044;-64
2022/05/24 12:28:37;;;;;;;3.75;3.30;;;16.20;99.90;;;;;;5057063;28;20045;-64
2022/05/24 12:31:17;;;;;;;4.65;3.45;;;16.30;99.90;;;;;;5062488;28;20102;-63
2022/05/24 12:33:57;;;;;;;3.60;3.28;;;16.60;99.90;;;;;;5070633;28;20109;-63
2022/05/24 12:36:25;;;;;;;8.68;4.32;;;16.70;99.90;;;;;;5059943;28;20111;-63
2022/05/24 12:39:03;;;;;;;5.88;3.78;;;16.80;99.90;;;;;;5050709;28;20041;-63
2022/05/24 12:41:34;;;;;;;4.07;3.70;;;16.90;99.90;;;;;;5059530;28;20919;-63
2022/05/24 12:44:10;;;;;;;8.52;4.10;;;16.80;99.90;;;;;;5065919;28;20521;-63
2022/05/24 12:46:37;;;;;;;9.23;3.08;;;16.90;99.90;;;;;;5061898;28;20044;-63
2022/05/24 12:49:10;;;;;;;5.18;3.92;;;16.90;99.90;;;;;;5054633;28;20071;-63
2022/05/24 12:51:37;;;;;;;5.30;3.85;;;17.00;99.90;;;;;;5069752;28;20123;-63
2022/05/24 12:54:12;;;;;;;9.32;3.80;;;17.00;99.90;;;;;;5067380;28;20139;-63
2022/05/24 12:56:38;;;;;;;5.32;3.67;;;17.10;99.90;;;;;;5050364;28;20083;-63
2022/05/24 12:59:11;;;;;;;4.97;3.90;;;17.20;99.90;;;;;;5053174;28;20049;-62
2022/05/24 13:01:41;;;;;;;6.15;2.97;;;17.20;99.90;;;;;;5052718;28;20037;-63
2022/05/24 13:04:19;;;;;;;4.10;3.22;;;17.10;99.90;;;;;;5062159;28;20049;-63
2022/05/24 13:06:46;;;;;;;;;;;16.90;99.90;;;;;;5051082;28;20095;-64
2022/05/24 13:09:15;;;;;;;5.15;2.67;;;16.50;99.90;;;;;;5049645;28;19924;-63
2022/05/24 13:11:43;;;;;;;3.85;2.75;;;16.10;99.90;;;;;;5057196;28;20048;-64
2022/05/24 13:14:37;;;;;;;4.63;2.13;;;15.90;99.90;;;;;;5054859;28;20049;-64
2022/05/24 13:17:08;;;;;;;5.22;2.10;;;15.80;99.90;;;;;;5049018;28;20107;-64
2022/05/24 13:19:46;;;;;;;2.05;1.95;;;15.60;99.90;;;;;;5049453;28;20057;-65
2022/05/24 13:22:13;;;;;;;4.63;2.08;;;15.60;99.90;;;;;;5050084;28;20059;-63
2022/05/24 13:24:56;;;;;;;2.40;1.98;;;15.60;99.90;;;;;;5049833;28;20056;-64